createdAt,value
2023-01-10T00:03:28.130Z,70.98
2023-01-10T00:13:55.900Z,70.94
2023-01-10T00:24:23.805Z,70.55
2023-01-10T00:34:51.351Z,70.24
2023-01-10T00:45:19.959Z,70.32
2023-01-10T00:55:47.866Z,70.65
2023-01-10T01:06:15.520Z,70.38
2023-01-10T01:16:43.109Z,70.61
2023-01-10T01:27:10.673Z,70.68
2023-01-10T01:37:38.169Z,70.48
2023-01-10T01:48:11.017Z,70.77
2023-01-10T01:58:45.233Z,71.04
2023-01-10T02:09:19.738Z,71.34
2023-01-10T02:19:52.896Z,71.24
2023-01-10T02:31:11.392Z,71.52
2023-01-10T02:41:47.420Z,71.78
2023-01-10T02:52:19.873Z,72.04
2023-01-10T03:03:07.934Z,72.13
2023-01-10T03:13:40.685Z,72.09
2023-01-10T03:24:12.707Z,72.28
2023-01-10T03:34:41.126Z,72.68
2023-01-10T03:45:16.282Z,72.80
2023-01-10T03:55:46.468Z,73.08
2023-01-10T04:06:14.212Z,72.79
2023-01-10T04:16:41.769Z,72.82
2023-01-10T04:27:09.612Z,72.64
2023-01-10T04:37:37.975Z,72.06
2023-01-10T04:48:06.897Z,71.96
2023-01-10T04:58:42.879Z,71.63
2023-01-10T05:09:10.645Z,71.63
2023-01-10T05:19:38.301Z,71.24
2023-01-10T05:30:07.688Z,70.94
2023-01-10T05:40:35.457Z,70.91
2023-01-10T05:51:03.008Z,70.38
2023-01-10T06:01:30.659Z,70.44
2023-01-10T06:11:58.306Z,70.61
2023-01-10T06:22:26.414Z,70.96
2023-01-10T06:32:53.923Z,71.57
2023-01-10T06:43:21.416Z,71.86
2023-01-10T06:53:48.980Z,71.79
2023-01-10T07:04:16.536Z,71.99
2023-01-10T07:14:44.288Z,72.26
2023-01-10T07:25:12.436Z,72.51
2023-01-10T07:35:40.314Z,72.43
2023-01-10T07:46:09.765Z,72.60
2023-01-10T07:56:37.285Z,72.63
2023-01-10T08:07:04.839Z,72.53
2023-01-10T08:17:33.624Z,71.78
2023-01-10T08:28:01.367Z,72.15
2023-01-10T08:38:29.687Z,71.97
2023-01-10T08:48:58.013Z,72.24
2023-01-10T08:59:25.583Z,72.71
2023-01-10T09:09:52.996Z,72.85
2023-01-10T09:20:20.701Z,72.98
2023-01-10T09:30:48.990Z,72.77
2023-01-10T09:41:31.257Z,72.58
2023-01-10T09:52:00.227Z,72.83
2023-01-10T10:02:31.723Z,72.92
2023-01-10T10:13:26.424Z,72.84
2023-01-10T10:24:10.436Z,72.63
2023-01-10T10:34:43.334Z,72.46
2023-01-10T10:45:20.507Z,72.47
2023-01-10T10:55:48.973Z,72.51
2023-01-10T11:06:19.387Z,72.58
2023-01-10T11:16:47.091Z,72.71
2023-01-10T11:27:20.721Z,72.70
2023-01-10T11:38:01.948Z,72.90
2023-01-10T11:48:59.754Z,73.10
2023-01-10T11:59:21.765Z,72.55
2023-01-10T12:10:01.635Z,72.83
2023-01-10T12:20:32.440Z,72.50
2023-01-10T12:31:02.486Z,72.86
2023-01-10T12:41:58.237Z,72.87
2023-01-10T12:52:34.636Z,72.99
2023-01-10T13:03:05.072Z,73.45
2023-01-10T13:13:37.236Z,73.32
2023-01-10T13:24:07.006Z,73.12
2023-01-10T13:34:37.623Z,73.17
2023-01-10T13:45:26.013Z,73.14
2023-01-10T13:55:59.896Z,73.44
2023-01-10T14:06:43.777Z,73.48
2023-01-10T14:17:22.719Z,73.77
2023-01-10T14:27:52.883Z,73.47
2023-01-10T14:38:24.863Z,73.65
2023-01-10T14:48:55.338Z,73.75
2023-01-10T14:59:27.417Z,73.81
2023-01-10T15:09:57.382Z,73.88
2023-01-10T15:20:25.275Z,73.91
2023-01-10T15:30:53.593Z,73.82
2023-01-10T15:41:23.848Z,73.84
2023-01-10T15:51:51.787Z,74.03
2023-01-10T16:02:26.057Z,74.02
2023-01-10T16:13:11.372Z,74.04
2023-01-10T16:23:39.115Z,74.08
2023-01-10T16:34:06.707Z,73.75
2023-01-10T16:44:35.377Z,74.02
2023-01-10T16:55:03.167Z,73.97
2023-01-10T17:05:30.864Z,73.95
2023-01-10T17:15:58.879Z,73.95
2023-01-10T17:26:26.516Z,73.75
2023-01-10T17:36:54.169Z,73.76
2023-01-10T17:47:21.704Z,73.55
2023-01-10T17:57:49.458Z,73.60
2023-01-10T18:08:17.031Z,73.22
2023-01-10T18:18:44.555Z,73.29
2023-01-10T18:29:12.170Z,73.19
2023-01-10T18:39:39.657Z,72.96
2023-01-10T18:50:08.298Z,73.02
2023-01-10T19:00:35.826Z,72.95
2023-01-10T19:11:13.303Z,73.08
2023-01-10T19:21:42.314Z,73.41
2023-01-10T19:32:10.533Z,73.45
2023-01-10T19:42:39.964Z,73.37
2023-01-10T19:53:07.599Z,73.44
2023-01-10T20:03:35.161Z,73.37
2023-01-10T20:14:02.649Z,73.36
2023-01-10T20:24:30.264Z,73.44
2023-01-10T20:34:57.961Z,73.46
2023-01-10T20:45:25.607Z,73.63
2023-01-10T20:55:59.696Z,73.76
2023-01-10T21:06:28.542Z,73.94
2023-01-10T21:16:56.177Z,73.87
2023-01-10T21:27:24.485Z,73.73
2023-01-10T21:37:52.092Z,73.26
2023-01-10T21:48:19.650Z,72.55
2023-01-10T21:58:48.139Z,72.49
2023-01-10T22:09:14.369Z,72.58
2023-01-10T22:19:42.500Z,72.65
2023-01-10T22:30:13.346Z,73.06
2023-01-10T22:40:40.950Z,72.95
2023-01-10T22:51:09.508Z,72.64
2023-01-10T23:01:37.307Z,72.18
2023-01-10T23:12:04.975Z,71.91
2023-01-10T23:22:32.733Z,71.71
2023-01-10T23:33:00.217Z,71.54
2023-01-10T23:43:27.985Z,71.22
2023-01-10T23:53:55.678Z,70.52
